Nsu Inspire — 3FID5 — position and weather

sailwx.info

Track history (hours):
 
Tides and Currents Weather Stations Pressure Air Temp Water Temp Dewpoint Dewpoint Depression Visibility Wind Speed Wind Dir Waves Ship Positions

Nsu Inspire

Last reported at 2017-Jan-16 10:23 UTC. Time now 2017-Jan-18 18:04 UTC.
Position N 38°28' E 121°06'.

Length 330 m; draft 11 m.

Type: Cargo ship. MMSI: 372998000.

Date/timePositionNaut miles runAvg speedWind from/ knotsBaromVisibWave heightAir tempDewpointWater temp
2017-Jan-16 10:23N 38°28' E 121°06'1113.8
2017-Jan-16 09:33N 38°33' E 120°53'1313.3
2017-Jan-16 08:33N 38°35' E 120°36'1212.3
2017-Jan-16 07:33N 38°36' E 120°21'  
2017-Jan-07 11:04N 38°41' E 120°36'6 8.6
2017-Jan-07 10:20N 38°38' E 120°43'7 8.5
2017-Jan-07 09:33N 38°37' E 120°51'10 9.9
2017-Jan-07 08:33N 38°33' E 121°03'10 9.5
2017-Jan-07 07:33N 38°29' E 121°14'10 9.3
2017-Jan-07 06:30N 38°26' E 121°26'9 9.1
2017-Jan-07 05:33N 38°24' E 121°37'8 7.9
2017-Jan-07 04:30N 38°22' E 121°47'  
Track history (hours):
 
Tides and Currents Weather Stations Pressure Air Temp Water Temp Dewpoint Dewpoint Depression Visibility Wind Speed Wind Dir Waves Ship Positions

Nsu Inspire

Last reported at 2017-Jan-16 10:23 UTC. Time now 2017-Jan-18 18:04 UTC.
Position N 38°28' E 121°06'.

Length 330 m; draft 11 m.

Type: Cargo ship. MMSI: 372998000.

Date/timePositionNaut miles runAvg speedWind from/ knotsBaromVisibWave heightAir tempDewpointWater temp
2017-Jan-16 10:23N 38°28' E 121°06'1113.8
2017-Jan-16 09:33N 38°33' E 120°53'1313.3
2017-Jan-16 08:33N 38°35' E 120°36'1212.3
2017-Jan-16 07:33N 38°36' E 120°21'  
2017-Jan-07 11:04N 38°41' E 120°36'6 8.6
2017-Jan-07 10:20N 38°38' E 120°43'7 8.5
2017-Jan-07 09:33N 38°37' E 120°51'10 9.9
2017-Jan-07 08:33N 38°33' E 121°03'10 9.5
2017-Jan-07 07:33N 38°29' E 121°14'10 9.3
2017-Jan-07 06:30N 38°26' E 121°26'9 9.1
2017-Jan-07 05:33N 38°24' E 121°37'8 7.9
2017-Jan-07 04:30N 38°22' E 121°47'  

Dump ship's entire track history